Time;durP1;ratioP1;P1;durP2;ratioP2;P2;SDS_P1;SDS_P2;PMS_P1;PMS_P2;Temp;Humidity;BMP_temperature;BMP_pressure;BME280_temperature;BME280_humidity;BME280_pressure;Samples;Min_cycle;Max_cycle;Signal;HPM_P1;HPM_P2
2022/03/22 00:00:42;;;;;;;;;;;;;;;14.54;55.95;102751.44;1016836;29;1306;-77
2022/03/22 00:01:33;;;;;;;;;;;;;;;14.54;56.61;102748.75;1016996;29;1130;-77
2022/03/22 00:02:23;;;;;;;;;;;;;;;14.54;55.98;102748.75;1016516;29;1242;-77
2022/03/22 00:03:14;;;;;;;;;;;;;;;14.54;55.86;102754.97;1016960;29;1193;-77
2022/03/22 00:04:04;;;;;;;;;;;;;;;14.54;55.72;102743.38;1016790;29;1248;-76
2022/03/22 00:04:55;;;;;;;;;;;;;;;14.53;55.84;102745.19;1016947;29;1197;-76
2022/03/22 00:05:45;;;;;;;;;;;;;;;14.54;56.44;102748.75;1016820;29;1186;-76
2022/03/22 00:06:36;;;;;;;;;;;;;;;14.53;56.17;102749.69;1016923;29;1126;-76
2022/03/22 00:07:27;;;;;;;;;;;;;;;14.53;56.15;102747.88;1017085;29;1173;-76
2022/03/22 00:08:18;;;;;;;;;;;;;;;14.53;55.92;102752.38;1017176;29;1086;-76
2022/03/22 00:09:08;;;;;;;;;;;;;;;14.52;56.39;102743.44;1017367;29;1335;-76
2022/03/22 00:09:58;;;;;;;;;;;;;;;14.52;55.82;102750.63;1016893;29;1142;-77
2022/03/22 00:10:49;;;;;;;;;;;;;;;14.53;56.61;102744.31;1014739;29;1269;-78
2022/03/22 00:11:39;;;;;;;;;;;;;;;14.52;55.97;102745.28;1016802;29;1165;-78
2022/03/22 00:12:30;;;;;;;;;;;;;;;14.52;55.67;102745.28;1016944;29;1146;-76
2022/03/22 00:13:21;;;;;;;;;;;;;;;14.52;56.04;102750.63;1016842;29;1149;-79
2022/03/22 00:14:12;;;;;;;;;;;;;;;14.52;56.49;102745.28;1016526;29;1117;-79
2022/03/22 00:15:03;;;;;;;;;;;;;;;14.51;56.08;102743.56;1016774;29;1193;-80
2022/03/22 00:15:54;;;;;;;;;;;;;;;14.51;56.22;102748.94;1016904;29;1161;-80
2022/03/22 00:16:44;;;;;;;;;;;;;;;14.50;56.29;102742.69;1016765;29;1165;-76
2022/03/22 00:17:34;;;;;;;;;;;;;;;14.50;56.51;102742.69;1016877;29;1209;-75
2022/03/22 00:18:25;;;;;;;;;;;;;;;14.51;56.14;102744.41;1016887;29;1264;-75
2022/03/22 00:19:15;;;;;;;;;;;;;;;14.50;56.37;102744.50;1016869;29;1192;-75
2022/03/22 00:20:06;;;;;;;;;;;;;;;14.50;56.47;102742.69;1014226;29;1236;-75
2022/03/22 00:20:56;;;;;;;;;;;;;;;14.49;56.48;102740.97;1016872;29;1158;-77
2022/03/22 00:21:47;;;;;;;;;;;;;;;14.49;56.05;102745.44;1014334;29;1225;-77
2022/03/22 00:22:38;;;;;;;;;;;;;;;14.50;56.26;102736.47;1016981;29;1150;-77
2022/03/22 00:23:29;;;;;;;;;;;;;;;14.49;56.57;102745.44;1014674;29;1352;-77
2022/03/22 00:24:19;;;;;;;;;;;;;;;14.50;55.97;102749.88;1016960;29;1205;-77
2022/03/22 00:25:10;;;;;;;;;;;;;;;14.49;56.35;102740.09;1016869;29;1217;-76
2022/03/22 00:26:00;;;;;;;;;;;;;;;14.49;56.42;102740.09;1016832;29;1204;-76
2022/03/22 00:26:51;;;;;;;;;;;;;;;14.49;55.62;102748.13;1016843;29;1149;-77
2022/03/22 00:27:52;;;;;;;;;;;;;;;14.48;55.68;102741.91;1016548;29;1264;-77
2022/03/22 00:28:43;;;;;;;;;;;;;;;14.48;56.24;102741.03;1016369;29;1141;-77
2022/03/22 00:29:34;;;;;;;;;;;;;;;14.48;56.01;102735.66;1017136;29;655;-77
2022/03/22 00:30:24;;;;;;;;;;;;;;;14.48;56.50;102744.59;1014292;29;1202;-76
2022/03/22 00:31:15;;;;;;;;;;;;;;;14.48;55.98;102746.41;1016852;29;1233;-77
2022/03/22 00:32:08;;;;;;;;;;;;;;;14.48;56.10;102747.25;1016409;29;1906;-77
2022/03/22 00:32:58;;;;;;;;;;;;;;;14.48;55.66;102743.72;1016788;29;1197;-76
2022/03/22 00:33:49;;;;;;;;;;;;;;;14.47;56.28;102748.22;1016862;29;1117;-75
2022/03/22 00:34:44;;;;;;;;;;;;;;;14.47;55.64;102747.34;1016877;29;1225;-76
2022/03/22 00:35:37;;;;;;;;;;;;;;;14.47;55.73;102748.22;1016900;29;1173;-75
2022/03/22 00:36:28;;;;;;;;;;;;;;;14.46;55.81;102748.28;1014822;29;1197;-76
2022/03/22 00:37:18;;;;;;;;;;;;;;;14.47;56.41;102750.03;1016684;29;1185;-76
2022/03/22 00:38:09;;;;;;;;;;;;;;;14.46;55.37;102749.16;1016853;29;675;-76
2022/03/22 00:38:59;;;;;;;;;;;;;;;14.46;56.35;102741.09;1016966;29;651;-76
2022/03/22 00:39:49;;;;;;;;;;;;;;;14.46;55.81;102749.16;1016969;29;686;-76
2022/03/22 00:40:40;;;;;;;;;;;;;;;14.46;56.33;102748.28;1016720;29;1185;-77
2022/03/22 00:41:30;;;;;;;;;;;;;;;14.46;55.86;102745.59;1016693;29;1137;-76
2022/03/22 00:42:21;;;;;;;;;;;;;;;14.45;55.81;102744.72;1016348;29;1347;-76
2022/03/22 00:43:12;;;;;;;;;;;;;;;14.46;55.56;102745.59;1016320;29;1208;-76
2022/03/22 00:44:02;;;;;;;;;;;;;;;14.45;56.17;102749.22;1016422;29;1197;-76
2022/03/22 00:44:54;;;;;;;;;;;;;;;14.45;56.11;102746.53;1014849;29;1138;-73
2022/03/22 00:45:44;;;;;;;;;;;;;;;14.46;55.78;102745.59;1013098;29;682;-73
2022/03/22 00:46:36;;;;;;;;;;;;;;;14.46;56.14;102745.59;1013872;29;622;-72
2022/03/22 00:47:27;;;;;;;;;;;;;;;14.44;56.05;102752.84;1012682;29;635;-72
2022/03/22 00:48:17;;;;;;;;;;;;;;;14.45;55.73;102749.22;1013292;29;666;-73
2022/03/22 00:49:08;;;;;;;;;;;;;;;14.45;55.75;102757.28;1013322;29;642;-74
2022/03/22 00:50:00;;;;;;;;;;;;;;;14.44;55.80;102748.34;1012763;29;643;-74
2022/03/22 00:50:53;;;;;;;;;;;;;;;14.43;56.45;102745.75;1012748;29;675;-74
2022/03/22 00:51:44;;;;;;;;;;;;;;;14.44;55.55;102747.50;1012738;29;702;-76
2022/03/22 00:52:35;;;;;;;;;;;;;;;14.44;55.77;102750.19;1012710;29;643;-76
2022/03/22 00:53:26;;;;;;;;;;;;;;;14.44;55.97;102755.53;1012722;29;672;-74
2022/03/22 00:54:16;;;;;;;;;;;;;;;14.44;55.83;102752.84;1012684;29;631;-74
2022/03/22 00:55:07;;;;;;;;;;;;;;;14.43;55.50;102753.81;1012746;29;675;-74
2022/03/22 00:56:01;;;;;;;;;;;;;;;14.42;56.02;102755.63;1012792;29;686;-74
2022/03/22 00:56:54;;;;;;;;;;;;;;;14.43;55.87;102748.44;1013742;29;709;-74
2022/03/22 00:57:44;;;;;;;;;;;;;;;14.43;56.24;102751.13;1013404;29;698;-75
2022/03/22 00:58:34;;;;;;;;;;;;;;;14.42;55.66;102749.38;1012661;29;729;-74
2022/03/22 01:00:34;;;;;;;;;;;;;;;14.42;55.66;102754.75;1013804;29;618;-74
2022/03/22 01:01:25;;;;;;;;;;;;;;;14.43;55.51;102748.44;1012751;29;674;-74
2022/03/22 01:02:15;;;;;;;;;;;;;;;14.41;55.68;102747.63;1013312;29;643;-74
2022/03/22 01:03:06;;;;;;;;;;;;;;;14.42;56.15;102738.66;1013179;29;697;-75
2022/03/22 01:03:56;;;;;;;;;;;;;;;14.42;56.08;102744.00;1013170;29;635;-74
2022/03/22 01:04:47;;;;;;;;;;;;;;;14.42;55.67;102746.69;1013230;29;686;-75
2022/03/22 01:05:37;;;;;;;;;;;;;;;14.42;55.77;102746.69;1013293;29;725;-72
2022/03/22 01:06:27;;;;;;;;;;;;;;;14.42;56.00;102749.38;1013252;29;624;-73
2022/03/22 01:07:18;;;;;;;;;;;;;;;14.41;56.32;102745.81;1013158;29;632;-73
2022/03/22 01:08:08;;;;;;;;;;;;;;;14.41;55.66;102740.47;1014760;29;1203;-73
2022/03/22 01:08:59;;;;;;;;;;;;;;;14.40;55.58;102744.09;1017011;29;730;-73
2022/03/22 01:09:50;;;;;;;;;;;;;;;14.41;56.17;102744.97;1017688;29;661;-73
2022/03/22 01:10:41;;;;;;;;;;;;;;;14.41;55.45;102747.63;1017084;29;619;-73
2022/03/22 01:11:31;;;;;;;;;;;;;;;14.40;55.91;102745.88;1017070;29;854;-73
2022/03/22 01:12:22;;;;;;;;;;;;;;;14.41;56.04;102748.50;1016675;29;747;-73
2022/03/22 01:13:13;;;;;;;;;;;;;;;14.41;55.98;102744.97;1017008;29;634;-73
2022/03/22 01:14:03;;;;;;;;;;;;;;;14.40;56.01;102735.13;1017069;29;654;-73
2022/03/22 01:14:55;;;;;;;;;;;;;;;14.40;55.56;102741.41;1017181;29;647;-74
2022/03/22 01:15:46;;;;;;;;;;;;;;;14.40;56.24;102745.88;1017779;29;618;-73
2022/03/22 01:16:39;;;;;;;;;;;;;;;14.39;55.84;102739.63;1017195;29;680;-73
2022/03/22 01:17:31;;;;;;;;;;;;;;;14.40;56.15;102743.19;1017297;29;706;-74
2022/03/22 01:18:23;;;;;;;;;;;;;;;14.41;55.64;102747.63;1016802;29;615;-74
2022/03/22 01:19:15;;;;;;;;;;;;;;;14.39;56.17;102741.44;1017110;29;733;-74
2022/03/22 01:20:06;;;;;;;;;;;;;;;14.39;56.30;102747.69;1017081;29;704;-73
2022/03/22 01:20:57;;;;;;;;;;;;;;;14.40;55.82;102751.22;1017651;29;653;-73
2022/03/22 01:21:48;;;;;;;;;;;;;;;14.39;55.81;102746.81;1017042;29;911;-74
2022/03/22 01:22:38;;;;;;;;;;;;;;;14.39;55.77;102749.50;1017123;29;668;-74
2022/03/22 01:23:29;;;;;;;;;;;;;;;14.39;55.54;102741.44;1017122;29;678;-74
2022/03/22 01:24:19;;;;;;;;;;;;;;;14.39;55.80;102754.84;1017646;29;656;-74
2022/03/22 01:25:10;;;;;;;;;;;;;;;14.39;56.00;102754.84;1017067;29;711;-74
2022/03/22 01:26:02;;;;;;;;;;;;;;;14.38;55.50;102754.00;1017008;29;871;-73
2022/03/22 01:26:52;;;;;;;;;;;;;;;14.39;55.42;102749.50;1016678;29;714;-73
2022/03/22 01:27:43;;;;;;;;;;;;;;;14.37;56.24;102757.63;1016885;29;1236;-74
2022/03/22 01:28:34;;;;;;;;;;;;;;;14.37;55.87;102744.22;1017109;29;576;-73
2022/03/22 01:29:24;;;;;;;;;;;;;;;14.38;55.59;102753.13;1017082;29;705;-72
2022/03/22 01:30:15;;;;;;;;;;;;;;;14.37;55.75;102751.38;1017005;29;694;-73
2022/03/22 01:31:06;;;;;;;;;;;;;;;14.38;56.13;102753.13;1017636;29;619;-72
2022/03/22 01:31:56;;;;;;;;;;;;;;;14.37;55.46;102746.03;1016788;29;1910;-73
2022/03/22 01:32:46;;;;;;;;;;;;;;;14.37;56.33;102752.25;1017148;29;619;-72
2022/03/22 01:33:37;;;;;;;;;;;;;;;14.37;55.41;102752.25;1017102;29;698;-73
2022/03/22 01:34:27;;;;;;;;;;;;;;;14.37;56.14;102746.88;1017046;29;520;-73
2022/03/22 01:35:18;;;;;;;;;;;;;;;14.37;55.72;102744.22;1020731;29;713;-73
2022/03/22 01:36:08;;;;;;;;;;;;;;;14.38;55.78;102747.75;1020625;29;675;-73
2022/03/22 01:36:58;;;;;;;;;;;;;;;14.36;55.56;102742.47;1017175;29;658;-72
2022/03/22 01:37:49;;;;;;;;;;;;;;;14.37;55.64;102740.66;1020709;29;788;-72
2022/03/22 01:38:40;;;;;;;;;;;;;;;14.36;56.41;102744.28;1020800;29;694;-72
2022/03/22 01:39:30;;;;;;;;;;;;;;;14.36;56.08;102741.59;1017203;29;721;-72
2022/03/22 01:40:21;;;;;;;;;;;;;;;14.35;56.00;102748.78;1017104;29;694;-72
2022/03/22 01:41:12;;;;;;;;;;;;;;;14.36;56.50;102745.16;1017316;29;674;-71
2022/03/22 01:42:03;;;;;;;;;;;;;;;14.36;55.66;102742.47;1017693;29;643;-72
2022/03/22 01:42:54;;;;;;;;;;;;;;;14.35;56.05;102743.41;1017824;29;603;-72
2022/03/22 01:43:44;;;;;;;;;;;;;;;14.35;55.47;102737.19;1017837;29;702;-72
2022/03/22 01:44:34;;;;;;;;;;;;;;;14.35;56.39;102734.50;1017751;29;676;-72
2022/03/22 01:45:25;;;;;;;;;;;;;;;14.35;55.82;102737.19;1017759;29;659;-72
2022/03/22 01:46:15;;;;;;;;;;;;;;;14.34;56.47;102738.13;1017773;29;646;-73
2022/03/22 01:47:06;;;;;;;;;;;;;;;14.34;56.06;102735.44;1017770;29;693;-72
2022/03/22 01:47:58;;;;;;;;;;;;;;;14.35;56.16;102742.53;1017838;29;659;-73
2022/03/22 01:48:48;;;;;;;;;;;;;;;14.34;55.60;102740.81;1017710;29;657;-72
2022/03/22 01:49:41;;;;;;;;;;;;;;;14.34;56.28;102736.31;1017722;29;682;-73
2022/03/22 01:50:31;;;;;;;;;;;;;;;14.33;55.53;102736.41;1017878;29;726;-72
2022/03/22 01:51:22;;;;;;;;;;;;;;;14.34;55.54;102746.16;1021326;29;651;-72
2022/03/22 01:52:13;;;;;;;;;;;;;;;14.33;56.21;102744.47;1017425;29;1895;-73
2022/03/22 01:53:03;;;;;;;;;;;;;;;14.34;56.02;102740.81;1014859;29;674;-73
2022/03/22 01:53:53;;;;;;;;;;;;;;;14.33;55.77;102744.47;1017593;29;1721;-73
2022/03/22 01:54:44;;;;;;;;;;;;;;;14.35;56.18;102742.53;1017169;29;636;-73
2022/03/22 01:55:34;;;;;;;;;;;;;;;14.33;55.63;102739.09;1016858;29;655;-74
2022/03/22 01:56:25;;;;;;;;;;;;;;;14.33;55.63;102739.09;1017110;29;695;-74
2022/03/22 01:57:15;;;;;;;;;;;;;;;14.33;56.03;102736.41;1017083;29;659;-74
2022/03/22 01:58:05;;;;;;;;;;;;;;;14.33;56.39;102728.38;1017033;29;642;-74
2022/03/22 01:58:56;;;;;;;;;;;;;;;14.33;56.08;102733.72;1017168;29;646;-74
2022/03/22 01:59:46;;;;;;;;;;;;;;;14.33;55.60;102734.56;1017998;29;722;-75
2022/03/22 02:00:37;;;;;;;;;;;;;;;14.32;55.53;102729.31;1017423;29;697;-75
2022/03/22 02:06:04;;;;;;;;;;;;;;;14.32;56.35;102721.28;1018200;29;695;-74
2022/03/22 02:06:54;;;;;;;;;;;;;;;14.32;56.00;102722.13;1017221;29;639;-73
2022/03/22 02:07:45;;;;;;;;;;;;;;;14.31;56.23;102728.44;1017050;29;639;-74
2022/03/22 02:08:35;;;;;;;;;;;;;;;14.32;55.74;102726.63;1013802;29;650;-72
2022/03/22 02:09:26;;;;;;;;;;;;;;;14.32;55.96;102726.63;1013742;29;710;-73
2022/03/22 02:10:17;;;;;;;;;;;;;;;14.31;55.72;102724.91;1013268;29;648;-72
2022/03/22 02:11:08;;;;;;;;;;;;;;;14.31;55.92;102724.91;1013742;29;710;-72
2022/03/22 02:11:58;;;;;;;;;;;;;;;14.32;55.67;102723.94;1017135;29;1895;-73
2022/03/22 02:12:49;;;;;;;;;;;;;;;14.30;55.69;102723.16;1017637;29;666;-73
2022/03/22 02:13:39;;;;;;;;;;;;;;;14.30;56.54;102717.78;1017608;29;742;-72
2022/03/22 02:14:29;;;;;;;;;;;;;;;14.29;55.95;102719.59;1017641;29;552;-73
2022/03/22 02:15:20;;;;;;;;;;;;;;;14.31;55.71;102722.22;1017586;29;749;-75
2022/03/22 02:16:10;;;;;;;;;;;;;;;14.31;55.75;102720.41;1017677;29;959;-75
2022/03/22 02:17:01;;;;;;;;;;;;;;;14.29;56.32;102719.59;1017716;29;662;-74
2022/03/22 02:17:51;;;;;;;;;;;;;;;14.31;56.04;102722.22;1017647;29;702;-74
2022/03/22 02:18:42;;;;;;;;;;;;;;;14.29;56.57;102719.59;1017647;29;675;-75
2022/03/22 02:19:33;;;;;;;;;;;;;;;14.30;56.46;102717.78;1017623;29;686;-75
2022/03/22 02:20:23;;;;;;;;;;;;;;;14.29;55.95;102721.41;1017637;29;781;-75
2022/03/22 02:21:14;;;;;;;;;;;;;;;14.30;56.45;102720.47;1017604;29;671;-74
2022/03/22 02:22:05;;;;;;;;;;;;;;;14.29;55.93;102721.41;1017608;29;608;-74
2022/03/22 02:22:55;;;;;;;;;;;;;;;14.29;56.27;102722.28;1017578;29;659;-73
2022/03/22 02:23:46;;;;;;;;;;;;;;;14.29;56.08;102716.91;1017661;29;661;-73
2022/03/22 02:24:36;;;;;;;;;;;;;;;14.29;55.96;102722.28;1017742;29;578;-73
2022/03/22 02:25:26;;;;;;;;;;;;;;;14.29;55.78;102716.06;1017641;29;718;-73
2022/03/22 02:26:17;;;;;;;;;;;;;;;14.29;55.64;102722.28;1017574;29;616;-74
2022/03/22 02:27:08;;;;;;;;;;;;;;;14.29;56.16;102714.25;1017661;29;694;-74
2022/03/22 02:27:58;;;;;;;;;;;;;;;14.28;55.57;102714.31;1017516;29;1129;-74
2022/03/22 02:28:53;;;;;;;;;;;;;;;14.28;56.40;102717.00;1017704;29;646;-75
2022/03/22 02:29:43;;;;;;;;;;;;;;;14.28;55.62;102717.00;1021205;29;640;-75
2022/03/22 02:30:33;;;;;;;;;;;;;;;14.28;55.74;102712.50;1021144;29;707;-75
2022/03/22 02:31:24;;;;;;;;;;;;;;;14.28;55.72;102717.88;1017234;29;1463;-75
2022/03/22 02:32:14;;;;;;;;;;;;;;;14.28;56.13;102717.00;1017097;29;2022;-76
2022/03/22 02:33:05;;;;;;;;;;;;;;;14.27;55.90;102717.94;1016996;29;662;-76
2022/03/22 02:33:55;;;;;;;;;;;;;;;14.27;56.34;102720.63;1017131;29;666;-74
2022/03/22 02:34:46;;;;;;;;;;;;;;;14.26;55.99;102719.75;1017494;29;630;-73
2022/03/22 02:35:36;;;;;;;;;;;;;;;14.27;55.62;102717.94;1017010;29;658;-74
2022/03/22 02:36:26;;;;;;;;;;;;;;;14.25;55.59;102721.56;1017596;29;646;-74
2022/03/22 02:37:17;;;;;;;;;;;;;;;14.27;55.76;102717.94;1016970;29;678;-73
2022/03/22 02:38:08;;;;;;;;;;;;;;;14.25;55.69;102716.19;1017611;29;662;-73
2022/03/22 02:38:58;;;;;;;;;;;;;;;14.25;55.91;102721.56;1016538;29;662;-74
2022/03/22 02:39:48;;;;;;;;;;;;;;;14.25;56.23;102721.56;1017575;29;726;-73
2022/03/22 02:40:39;;;;;;;;;;;;;;;14.25;55.69;102716.19;1016895;29;611;-75
2022/03/22 02:41:30;;;;;;;;;;;;;;;14.26;55.75;102717.06;1016931;29;703;-74
2022/03/22 02:42:20;;;;;;;;;;;;;;;14.25;56.57;102716.19;1017536;29;622;-74
2022/03/22 02:43:11;;;;;;;;;;;;;;;14.26;56.47;102722.44;1016887;29;729;-74
2022/03/22 02:44:01;;;;;;;;;;;;;;;14.25;56.50;102732.28;1017554;29;663;-74
2022/03/22 02:44:52;;;;;;;;;;;;;;;14.25;55.95;102732.28;1017506;29;658;-74
2022/03/22 02:45:42;;;;;;;;;;;;;;;14.25;56.08;102718.88;1017027;29;706;-74
2022/03/22 02:46:33;;;;;;;;;;;;;;;14.26;56.59;102722.44;1016908;29;643;-74
2022/03/22 02:47:23;;;;;;;;;;;;;;;14.25;55.79;102726.06;1016950;29;643;-74
2022/03/22 02:48:15;;;;;;;;;;;;;;;14.25;55.95;102731.44;1016960;29;694;-72
2022/03/22 02:49:08;;;;;;;;;;;;;;;14.25;55.82;102726.06;1017506;29;728;-72
2022/03/22 02:49:59;;;;;;;;;;;;;;;14.24;56.21;102719.81;1016997;29;620;-72
2022/03/22 02:50:49;;;;;;;;;;;;;;;14.25;55.91;102731.44;1016774;29;1653;-72
2022/03/22 02:51:39;;;;;;;;;;;;;;;14.24;56.36;102722.50;1017280;29;641;-71
2022/03/22 02:52:30;;;;;;;;;;;;;;;14.24;55.91;102730.56;1017449;29;655;-73
2022/03/22 02:53:20;;;;;;;;;;;;;;;14.23;55.82;102718.09;1017482;29;706;-73
2022/03/22 02:54:11;;;;;;;;;;;;;;;14.23;55.95;102723.44;1017567;29;655;-71
2022/03/22 02:55:01;;;;;;;;;;;;;;;14.23;56.34;102722.59;1017514;29;635;-70
2022/03/22 02:55:52;;;;;;;;;;;;;;;14.24;56.21;102724.31;1017585;29;690;-70
2022/03/22 02:56:42;;;;;;;;;;;;;;;14.23;55.77;102718.09;1017549;29;717;-70
2022/03/22 02:57:33;;;;;;;;;;;;;;;14.24;56.00;102729.69;1017472;29;686;-71
2022/03/22 02:58:23;;;;;;;;;;;;;;;14.22;55.79;102721.72;1017435;29;658;-71
2022/03/22 02:59:13;;;;;;;;;;;;;;;14.23;56.61;102722.59;1017534;29;643;-71
2022/03/22 03:00:04;;;;;;;;;;;;;;;14.23;56.48;102722.59;1020852;29;1586;-71
2022/03/22 03:00:54;;;;;;;;;;;;;;;14.23;55.79;102723.44;1018280;29;671;-71
2022/03/22 03:01:45;;;;;;;;;;;;;;;14.22;56.41;102721.72;1014378;29;643;-71
2022/03/22 03:02:35;;;;;;;;;;;;;;;14.23;56.46;102718.09;1013815;29;666;-71
2022/03/22 03:03:26;;;;;;;;;;;;;;;14.24;55.64;102729.69;1013681;29;690;-71
2022/03/22 03:04:16;;;;;;;;;;;;;;;14.24;56.13;102716.28;1013124;29;631;-71
2022/03/22 03:05:08;;;;;;;;;;;;;;;14.23;56.61;102720.78;1013111;29;718;-71
2022/03/22 03:05:58;;;;;;;;;;;;;;;14.22;56.43;102719.03;1014030;29;726;-71
2022/03/22 03:06:49;;;;;;;;;;;;;;;14.22;55.87;102720.84;1012938;29;636;-71
2022/03/22 03:07:39;;;;;;;;;;;;;;;14.23;56.32;102728.81;1012917;29;707;-71
2022/03/22 03:08:29;;;;;;;;;;;;;;;14.22;56.48;102721.72;1014027;29;650;-71
2022/03/22 03:09:20;;;;;;;;;;;;;;;14.21;56.00;102725.34;1014278;29;646;-72
2022/03/22 03:10:10;;;;;;;;;;;;;;;14.22;56.34;102720.84;1014056;29;706;-71
2022/03/22 03:11:01;;;;;;;;;;;;;;;14.22;56.23;102729.75;1013580;29;616;-71
2022/03/22 03:11:51;;;;;;;;;;;;;;;14.20;55.99;102728.97;1013616;29;678;-75
2022/03/22 03:12:42;;;;;;;;;;;;;;;14.21;56.06;102727.16;1013513;29;687;-75
2022/03/22 03:14:38;;;;;;;;;;;;;;;14.22;56.48;102726.22;1013566;29;612;-76
2022/03/22 03:14:43;;;;;;;;;;;;;;;14.20;56.30;102712.00;1013452;29;1165;-76
2022/03/22 03:15:33;;;;;;;;;;;;;;;14.21;55.97;102719.09;1013575;29;663;-76
2022/03/22 03:16:24;;;;;;;;;;;;;;;14.21;55.87;102728.03;1013491;29;674;-76
2022/03/22 03:17:14;;;;;;;;;;;;;;;14.20;56.41;102728.97;1013582;29;718;-76
2022/03/22 03:18:05;;;;;;;;;;;;;;;14.21;56.30;102733.38;1013526;29;631;-76
2022/03/22 03:18:55;;;;;;;;;;;;;;;14.20;56.29;102728.09;1013621;29;729;-76
2022/03/22 03:19:46;;;;;;;;;;;;;;;14.20;55.73;102728.97;1013506;29;691;-76
2022/03/22 03:20:36;;;;;;;;;;;;;;;14.21;55.82;102725.34;1013420;29;611;-76
2022/03/22 03:21:27;;;;;;;;;;;;;;;14.20;56.22;102728.97;1017136;29;706;-74
2022/03/22 03:22:18;;;;;;;;;;;;;;;14.20;56.22;102730.78;1017127;29;718;-74
2022/03/22 03:23:08;;;;;;;;;;;;;;;14.20;56.06;102725.41;1013544;29;667;-74
2022/03/22 03:23:58;;;;;;;;;;;;;;;14.21;56.42;102719.09;1013471;29;679;-74
2022/03/22 03:24:49;;;;;;;;;;;;;;;14.21;56.23;102732.50;1013400;29;703;-74
2022/03/22 03:25:39;;;;;;;;;;;;;;;14.20;55.87;102728.09;1013568;29;662;-74
2022/03/22 03:26:30;;;;;;;;;;;;;;;14.19;55.91;102732.59;1013449;29;690;-74
2022/03/22 03:27:22;;;;;;;;;;;;;;;14.19;56.09;102727.22;1013510;29;647;-74
2022/03/22 03:28:12;;;;;;;;;;;;;;;14.19;56.17;102727.22;1013475;29;695;-74
2022/03/22 03:29:02;;;;;;;;;;;;;;;14.19;56.34;102732.59;1017060;29;667;-74
2022/03/22 03:29:53;;;;;;;;;;;;;;;14.19;56.09;102724.53;1017117;29;686;-74
2022/03/22 03:30:43;;;;;;;;;;;;;;;14.18;56.37;102736.22;1013522;29;652;-74
2022/03/22 03:31:33;;;;;;;;;;;;;;;14.18;56.00;102725.50;1013481;29;706;-74
2022/03/22 03:32:24;;;;;;;;;;;;;;;14.19;56.24;102729.03;1013969;29;1919;-73
2022/03/22 03:33:14;;;;;;;;;;;;;;;14.18;56.00;102736.22;1013567;29;655;-74
2022/03/22 03:34:05;;;;;;;;;;;;;;;14.18;55.95;102735.34;1013409;29;643;-73
2022/03/22 03:34:55;;;;;;;;;;;;;;;14.18;55.93;102730.84;1017023;29;652;-73
2022/03/22 03:35:46;;;;;;;;;;;;;;;14.18;55.89;102732.66;1017047;29;654;-73
2022/03/22 03:36:36;;;;;;;;;;;;;;;14.18;55.78;102729.97;1013527;29;643;-73
2022/03/22 03:37:33;;;;;;;;;;;;;;;14.17;55.83;102730.94;1013013;29;647;-73
2022/03/22 03:38:23;;;;;;;;;;;;;;;14.17;55.78;102736.28;1013962;29;645;-72
2022/03/22 03:39:14;;;;;;;;;;;;;;;14.17;56.03;102729.13;1013450;29;635;-72
2022/03/22 03:40:04;;;;;;;;;;;;;;;14.16;56.45;102737.22;1013484;29;694;-72
2022/03/22 03:42:04;;;;;;;;;;;;;;;14.17;55.82;102739.84;1017870;29;642;-74
2022/03/22 03:42:54;;;;;;;;;;;;;;;14.16;56.41;102737.22;1016816;29;663;-74
2022/03/22 03:43:45;;;;;;;;;;;;;;;14.16;56.05;102732.75;1017326;29;801;-74
2022/03/22 03:47:10;;;;;;;;;;;;;;;14.14;56.18;102734.66;1017868;29;534;-73
2022/03/22 03:48:00;;;;;;;;;;;;;;;14.14;56.58;102737.34;1016722;29;639;-73
2022/03/22 03:48:51;;;;;;;;;;;;;;;14.14;56.40;102734.66;1016723;29;643;-72
2022/03/22 03:49:41;;;;;;;;;;;;;;;14.14;55.90;102737.34;1016724;29;671;-71
2022/03/22 03:50:32;;;;;;;;;;;;;;;14.15;56.21;102743.56;1016730;29;772;-71
2022/03/22 03:51:22;;;;;;;;;;;;;;;14.15;56.26;102739.03;1016802;29;623;-71
2022/03/22 03:52:13;;;;;;;;;;;;;;;14.14;56.13;102737.34;1016775;29;1903;-71
2022/03/22 03:53:03;;;;;;;;;;;;;;;14.14;56.01;102740.03;1016813;29;690;-71
2022/03/22 03:53:54;;;;;;;;;;;;;;;14.14;56.61;102733.78;1017204;29;644;-71
2022/03/22 03:54:44;;;;;;;;;;;;;;;14.14;55.63;102739.16;1016702;29;648;-71
2022/03/22 03:55:34;;;;;;;;;;;;;;;14.14;56.55;102733.78;1016847;29;654;-71
2022/03/22 03:56:25;;;;;;;;;;;;;;;14.13;55.85;102735.59;1016676;29;638;-71
2022/03/22 03:57:15;;;;;;;;;;;;;;;14.13;56.13;102740.97;1016769;29;687;-71
2022/03/22 03:58:06;;;;;;;;;;;;;;;14.12;55.82;102739.22;1016610;29;655;-71
2022/03/22 03:58:57;;;;;;;;;;;;;;;14.13;56.60;102742.78;1017220;29;632;-71
2022/03/22 03:59:48;;;;;;;;;;;;;;;14.13;56.59;102743.66;1016514;29;1646;-71
2022/03/22 04:00:39;;;;;;;;;;;;;;;14.12;56.24;102741.91;1014506;29;665;-71
2022/03/22 04:01:29;;;;;;;;;;;;;;;14.12;56.09;102741.91;1013961;29;725;-71
2022/03/22 04:02:20;;;;;;;;;;;;;;;14.13;56.28;102735.59;1013331;29;651;-71
2022/03/22 04:03:10;;;;;;;;;;;;;;;14.12;56.21;102736.53;1012956;29;632;-71
2022/03/22 04:04:00;;;;;;;;;;;;;;;14.12;55.59;102739.22;1013242;29;702;-72
2022/03/22 04:04:55;;;;;;;;;;;;;;;14.13;55.80;102737.41;1013254;29;694;-72
2022/03/22 04:05:45;;;;;;;;;;;;;;;14.11;56.54;102742.84;1013882;29;678;-71
2022/03/22 04:06:36;;;;;;;;;;;;;;;14.11;56.28;102740.16;1013339;29;703;-71
2022/03/22 04:07:26;;;;;;;;;;;;;;;14.11;55.88;102737.47;1013334;29;695;-71
2022/03/22 04:08:17;;;;;;;;;;;;;;;14.11;56.39;102737.47;1017298;29;1195;-72
2022/03/22 04:09:07;;;;;;;;;;;;;;;14.11;56.54;102740.16;1017525;29;674;-71
2022/03/22 04:09:58;;;;;;;;;;;;;;;14.11;56.51;102745.53;1021193;29;706;-71
2022/03/22 04:10:48;;;;;;;;;;;;;;;14.11;56.28;102740.16;1020820;29;632;-72
2022/03/22 04:11:38;;;;;;;;;;;;;;;14.10;55.55;102743.78;1017291;29;694;-71
2022/03/22 04:12:29;;;;;;;;;;;;;;;14.10;56.27;102738.44;1017205;29;640;-72
2022/03/22 04:13:19;;;;;;;;;;;;;;;14.10;56.04;102741.09;1017337;29;619;-72
2022/03/22 04:14:10;;;;;;;;;;;;;;;14.10;56.60;102738.44;1017304;29;627;-72
2022/03/22 04:15:00;;;;;;;;;;;;;;;14.10;56.08;102751.84;1017424;29;662;-71
2022/03/22 04:15:52;;;;;;;;;;;;;;;14.10;55.96;102746.47;1016982;29;741;-72
2022/03/22 04:16:42;;;;;;;;;;;;;;;14.11;56.30;102744.66;1017187;29;686;-71
2022/03/22 04:17:34;;;;;;;;;;;;;;;14.10;56.11;102746.47;1017215;29;647;-71
2022/03/22 04:18:24;;;;;;;;;;;;;;;14.10;55.69;102741.09;1017841;29;666;-71
2022/03/22 04:19:15;;;;;;;;;;;;;;;14.09;55.61;102752.78;1017594;29;649;-71
2022/03/22 04:20:07;;;;;;;;;;;;;;;14.10;56.39;102754.50;1016657;29;1661;-71
2022/03/22 04:20:58;;;;;;;;;;;;;;;14.09;56.15;102758.13;1017214;29;694;-72
2022/03/22 04:21:48;;;;;;;;;;;;;;;14.08;56.00;102755.53;1017077;29;1654;-73
2022/03/22 04:22:38;;;;;;;;;;;;;;;14.09;55.80;102749.22;1015762;29;682;-72
2022/03/22 04:23:29;;;;;;;;;;;;;;;14.09;55.63;102758.13;1016628;29;694;-72
2022/03/22 04:24:20;;;;;;;;;;;;;;;14.09;55.90;102760.81;1016651;29;663;-72
2022/03/22 04:25:10;;;;;;;;;;;;;;;14.09;56.12;102755.47;1016641;29;646;-73
2022/03/22 04:26:01;;;;;;;;;;;;;;;14.09;56.40;102746.53;1017184;29;643;-73
2022/03/22 04:26:51;;;;;;;;;;;;;;;14.08;55.96;102756.41;1016610;29;631;-73
2022/03/22 04:33:28;;;;;;;;;;;;;;;14.06;55.92;102752.91;1017217;29;662;-73
2022/03/22 04:34:19;;;;;;;;;;;;;;;14.06;56.45;102755.59;1016666;29;663;-73
2022/03/22 04:35:10;;;;;;;;;;;;;;;14.06;56.17;102752.91;1016084;29;667;-73
2022/03/22 04:36:00;;;;;;;;;;;;;;;14.06;56.16;102755.59;1016562;29;639;-73
2022/03/22 04:36:57;;;;;;;;;;;;;;;14.05;55.98;102751.19;1016681;29;647;-73
2022/03/22 04:37:47;;;;;;;;;;;;;;;14.07;56.19;102753.78;1016682;29;658;-73
2022/03/22 04:38:38;;;;;;;;;;;;;;;14.06;56.29;102752.06;1017444;29;780;-73
2022/03/22 04:39:29;;;;;;;;;;;;;;;14.06;55.98;102754.72;1016856;29;674;-73
2022/03/22 04:40:19;;;;;;;;;;;;;;;14.07;55.88;102748.44;1017722;29;690;-73
2022/03/22 04:41:09;;;;;;;;;;;;;;;14.06;56.12;102747.56;1017183;29;691;-73
2022/03/22 04:42:00;;;;;;;;;;;;;;;14.05;56.35;102751.19;1016565;29;734;-73
2022/03/22 04:42:51;;;;;;;;;;;;;;;14.06;56.51;102752.91;1016541;29;690;-73